createdAt,value
2022-12-20T00:49:55.705Z,25.05
2022-12-20T00:52:22.284Z,24.75
2022-12-20T00:54:48.842Z,26.60
2022-12-20T00:57:15.408Z,25.70
2022-12-20T00:59:42.041Z,26.25
2022-12-20T01:24:21.280Z,26.05
2022-12-20T01:26:48.185Z,24.48
2022-12-20T01:29:15.342Z,25.67
2022-12-20T01:35:57.641Z,24.60
2022-12-20T01:38:24.530Z,25.62
2022-12-20T01:55:47.974Z,26.10
2022-12-20T01:58:18.784Z,25.98
2022-12-20T02:01:16.200Z,25.60
2022-12-20T02:04:43.534Z,24.87
2022-12-20T02:07:17.529Z,25.65
2022-12-20T02:09:44.998Z,25.52
2022-12-20T02:12:13.238Z,26.45
2022-12-20T02:15:04.615Z,25.80
2022-12-20T02:17:31.130Z,26.90
2022-12-20T02:20:57.588Z,25.98
2022-12-20T02:23:36.269Z,24.25
2022-12-20T02:26:02.755Z,26.40
2022-12-20T02:28:50.793Z,25.50
2022-12-20T02:35:24.048Z,24.83
2022-12-20T02:43:42.233Z,25.60
2022-12-20T02:46:11.655Z,26.90
2022-12-20T02:48:39.641Z,25.60
2022-12-20T03:26:21.567Z,24.75
2022-12-20T03:28:48.161Z,22.92
2022-12-20T03:31:15.399Z,22.23
2022-12-20T03:33:42.413Z,23.58
2022-12-20T03:36:09.137Z,23.27
2022-12-20T03:38:35.740Z,22.13
2022-12-20T03:45:15.976Z,23.10
2022-12-20T03:48:02.544Z,21.52
2022-12-20T03:50:29.762Z,21.42
2022-12-20T03:52:56.414Z,22.98
2022-12-20T03:55:23.311Z,23.58
2022-12-20T04:17:25.732Z,21.70
2022-12-20T04:19:52.293Z,22.30
2022-12-20T04:22:18.920Z,21.85
2022-12-20T04:29:23.196Z,21.50
2022-12-20T04:31:49.836Z,21.75
2022-12-20T04:34:36.367Z,21.83
2022-12-20T04:37:03.009Z,22.10
2022-12-20T04:39:34.544Z,21.55
2022-12-20T04:42:21.163Z,23.12
2022-12-20T05:44:30.795Z,19.37
2022-12-20T05:46:57.388Z,18.55
2022-12-20T05:49:24.076Z,19.83
2022-12-20T05:51:50.642Z,18.90
2022-12-20T05:54:17.225Z,19.62
2022-12-20T05:56:43.811Z,19.95
2022-12-20T05:59:10.414Z,19.45
2022-12-20T06:01:37.219Z,20.35
2022-12-20T06:04:04.193Z,19.77
2022-12-20T06:06:30.931Z,19.08
2022-12-20T06:08:57.580Z,19.73
2022-12-20T06:11:29.620Z,21.10
2022-12-20T06:13:57.036Z,20.88
2022-12-20T06:16:23.764Z,20.25
2022-12-20T06:18:50.421Z,20.98
2022-12-20T06:21:16.962Z,19.52
2022-12-20T06:23:43.565Z,19.95
2022-12-20T06:26:10.211Z,18.77
2022-12-20T06:28:42.700Z,21.00
2022-12-20T06:31:11.163Z,19.70
2022-12-20T06:33:38.042Z,18.50
2022-12-20T06:36:05.063Z,19.15
2022-12-20T06:38:31.719Z,19.12
2022-12-20T06:40:58.426Z,19.70
2022-12-20T06:43:25.133Z,19.70
2022-12-20T06:45:51.904Z,18.30
2022-12-20T06:48:18.584Z,19.70
2022-12-20T06:50:48.061Z,18.77
2022-12-20T06:53:18.762Z,19.15
2022-12-20T06:55:47.735Z,18.58
2022-12-20T06:58:14.347Z,18.87
2022-12-20T07:00:40.905Z,20.00
2022-12-20T07:03:07.752Z,19.42
2022-12-20T07:05:34.495Z,20.90
2022-12-20T07:08:02.849Z,19.60
2022-12-20T07:10:29.471Z,22.35
2022-12-20T07:12:56.285Z,22.42
2022-12-20T07:15:22.936Z,22.30
2022-12-20T07:17:49.543Z,21.10
2022-12-20T07:20:16.776Z,20.55
2022-12-20T07:22:43.784Z,20.80
2022-12-20T07:25:11.113Z,22.15
2022-12-20T07:27:37.784Z,21.48
2022-12-20T07:30:05.234Z,21.85
2022-12-20T07:32:32.192Z,20.83
2022-12-20T07:34:59.126Z,20.20
2022-12-20T07:37:25.802Z,21.65
2022-12-20T07:39:52.407Z,21.55
2022-12-20T07:42:18.979Z,22.45
2022-12-20T07:44:45.570Z,21.27
2022-12-20T07:47:12.132Z,20.92
2022-12-20T07:49:38.950Z,20.55
2022-12-20T07:52:08.511Z,20.73
2022-12-20T07:54:38.205Z,21.55
2022-12-20T07:57:12.527Z,19.35
2022-12-20T07:59:46.833Z,18.15
2022-12-20T08:02:20.699Z,17.42
2022-12-20T08:04:48.337Z,17.83
2022-12-20T08:07:14.999Z,18.20
2022-12-20T08:09:44.229Z,18.67
2022-12-20T08:12:15.925Z,18.12
2022-12-20T08:14:43.092Z,18.52
2022-12-20T08:17:10.271Z,16.70
2022-12-20T08:19:36.898Z,16.48
2022-12-20T08:22:03.863Z,17.50
2022-12-20T08:27:05.698Z,17.20
2022-12-20T08:29:32.265Z,16.08
2022-12-20T08:32:10.809Z,17.02
2022-12-20T08:34:37.432Z,16.55
2022-12-20T08:37:07.804Z,16.73
2022-12-20T10:19:52.434Z,13.25
2022-12-20T10:22:22.436Z,14.30
2022-12-20T10:25:24.044Z,15.25
2022-12-20T10:27:55.343Z,13.23
2022-12-20T10:30:27.613Z,15.48
2022-12-20T10:37:01.485Z,15.88
2022-12-20T10:57:42.130Z,13.68
2022-12-20T11:00:29.796Z,14.48
2022-12-20T11:05:31.783Z,14.75
2022-12-20T11:08:38.093Z,15.00
2022-12-20T11:11:43.318Z,12.02
2022-12-20T11:14:15.189Z,12.15
2022-12-20T11:16:45.977Z,13.85
2022-12-20T11:19:38.870Z,13.82
2022-12-20T11:22:53.837Z,15.30
2022-12-20T11:45:14.931Z,13.68
2022-12-20T11:48:09.865Z,12.52
2022-12-20T11:50:42.817Z,12.90
2022-12-20T11:53:53.705Z,12.68
2022-12-20T13:29:23.451Z,13.75
2022-12-20T13:31:54.351Z,14.25
2022-12-20T13:34:55.652Z,14.35
2022-12-20T13:37:29.645Z,13.00
2022-12-20T13:39:57.767Z,13.77
2022-12-20T14:10:29.169Z,16.05
2022-12-20T14:12:56.123Z,14.98
2022-12-20T14:15:25.804Z,15.55
2022-12-20T14:17:52.447Z,14.13
2022-12-20T14:20:50.375Z,13.93
2022-12-20T19:31:37.411Z,29.17
2022-12-20T19:34:10.592Z,26.70
2022-12-20T19:36:40.584Z,26.58
2022-12-20T19:39:12.313Z,25.80
2022-12-20T20:59:49.879Z,26.23
2022-12-20T21:02:16.737Z,26.33
2022-12-20T21:04:59.301Z,26.17
2022-12-20T21:12:56.437Z,24.30
2022-12-20T21:15:27.768Z,24.42
2022-12-20T21:18:01.348Z,24.58
2022-12-20T21:20:27.904Z,23.33
2022-12-20T21:22:55.157Z,26.75
2022-12-20T21:25:21.795Z,25.95
2022-12-20T21:27:50.721Z,24.52
2022-12-20T21:30:21.181Z,27.73
2022-12-20T21:44:38.915Z,27.48
2022-12-20T21:52:16.232Z,26.98
2022-12-20T21:54:43.236Z,27.20
2022-12-20T21:57:11.001Z,27.05
2022-12-20T21:59:38.132Z,26.65
2022-12-20T22:02:05.433Z,27.33
2022-12-20T22:07:07.490Z,28.15
2022-12-20T22:09:37.031Z,28.52
2022-12-20T22:12:25.222Z,28.42
2022-12-20T22:14:51.782Z,26.10
2022-12-20T22:17:40.333Z,25.05
2022-12-20T22:20:24.803Z,25.62
2022-12-20T22:25:36.481Z,28.20
2022-12-20T22:30:58.937Z,25.95
2022-12-20T22:36:01.206Z,26.87
2022-12-20T22:41:30.308Z,26.40
2022-12-20T22:46:32.784Z,27.62
2022-12-20T22:54:41.575Z,27.45
2022-12-20T22:59:50.032Z,25.08
2022-12-20T23:02:16.936Z,23.70
2022-12-20T23:05:09.166Z,24.52
2022-12-20T23:07:35.836Z,24.48
2022-12-20T23:10:02.483Z,24.75
2022-12-20T23:12:50.857Z,24.87
2022-12-20T23:15:36.116Z,24.60
2022-12-20T23:28:37.041Z,22.90
2022-12-20T23:31:04.980Z,23.15
2022-12-20T23:37:02.785Z,23.27
2022-12-20T23:39:29.332Z,23.48
2022-12-20T23:41:55.889Z,22.77
2022-12-20T23:44:22.539Z,23.20
2022-12-20T23:46:49.120Z,22.92
2022-12-20T23:49:15.829Z,23.33
2022-12-20T23:54:21.627Z,23.55
2022-12-20T23:56:48.845Z,23.65
2022-12-20T23:59:15.678Z,22.50
